createdAt,value
2023-02-19T00:00:03.323Z,99372.50
2023-02-19T00:02:41.785Z,99370.44
2023-02-19T00:05:10.388Z,99375.53
2023-02-19T00:07:38.945Z,99371.63
2023-02-19T00:10:07.246Z,99366.63
2023-02-19T00:12:35.379Z,99374.69
2023-02-19T00:15:08.079Z,99372.72
2023-02-19T00:17:36.250Z,99364.75
2023-02-19T00:20:04.938Z,99367.78
2023-02-19T00:22:46.236Z,99368.91
2023-02-19T00:25:17.123Z,99365.59
2023-02-19T00:27:45.115Z,99365.78
2023-02-19T00:30:13.657Z,99361.13
2023-02-19T00:32:41.777Z,99360.53
2023-02-19T00:35:11.954Z,99367.41
2023-02-19T00:37:39.788Z,99360.72
2023-02-19T00:40:08.260Z,99347.38
2023-02-19T00:42:36.800Z,99357.28
2023-02-19T00:45:05.864Z,99364.44
2023-02-19T00:47:34.844Z,99369.50
2023-02-19T00:50:03.771Z,99364.00
2023-02-19T00:52:32.265Z,99363.41
2023-02-19T00:55:00.572Z,99376.25
2023-02-19T00:57:29.095Z,99370.16
2023-02-19T00:59:57.027Z,99372.50
2023-02-19T01:02:25.211Z,99367.03
2023-02-19T01:04:56.205Z,99372.41
2023-02-19T01:08:40.534Z,99361.72
2023-02-19T01:11:11.172Z,99351.03
2023-02-19T01:13:49.047Z,99342.44
2023-02-19T01:16:22.920Z,99345.03
2023-02-19T01:18:52.343Z,99332.28
2023-02-19T01:21:26.829Z,99340.13
2023-02-19T01:23:55.757Z,99332.16
2023-02-19T01:26:33.317Z,99327.13
2023-02-19T01:30:16.630Z,99338.44
2023-02-19T01:32:48.940Z,99337.34
2023-02-19T01:35:20.195Z,99323.88
2023-02-19T01:37:49.084Z,99339.25
2023-02-19T01:41:34.154Z,99330.72
2023-02-19T01:45:21.874Z,99322.28
2023-02-19T01:49:09.423Z,99321.97
2023-02-19T01:52:53.182Z,99320.44
2023-02-19T01:56:36.462Z,99317.09
2023-02-19T02:00:20.380Z,99316.69
2023-02-19T02:04:03.843Z,99314.38
2023-02-19T02:06:43.988Z,99319.44
2023-02-19T02:09:39.194Z,99313.50
2023-02-19T02:13:25.773Z,99313.56
2023-02-19T02:16:10.914Z,99313.50
2023-02-19T02:19:06.688Z,99309.88
2023-02-19T02:22:50.307Z,99313.38
2023-02-19T02:26:15.661Z,99317.84
2023-02-19T02:29:58.906Z,99318.66
2023-02-19T02:33:42.026Z,99312.47
2023-02-19T02:37:25.407Z,99304.16
2023-02-19T02:39:54.767Z,99301.25
2023-02-19T02:42:31.194Z,99297.09
2023-02-19T02:45:43.079Z,99298.84
2023-02-19T02:48:55.633Z,99286.47
2023-02-19T02:51:38.345Z,99281.41
2023-02-19T02:54:43.339Z,99284.44
2023-02-19T02:57:20.879Z,99288.19
2023-02-19T02:59:57.532Z,99277.63
2023-02-19T03:02:34.213Z,99277.97
2023-02-19T03:05:40.690Z,99279.59
2023-02-19T03:08:16.479Z,99276.91
2023-02-19T03:10:55.725Z,99281.03
2023-02-19T03:13:55.849Z,99263.19
2023-02-19T03:16:52.894Z,99284.97
2023-02-19T03:19:26.221Z,99279.13
2023-02-19T03:22:20.620Z,99274.22
2023-02-19T03:25:18.731Z,99279.25
2023-02-19T03:27:50.104Z,99275.75
2023-02-19T03:30:30.188Z,99281.56
2023-02-19T03:33:18.489Z,99274.50
2023-02-19T03:36:02.774Z,99274.66
2023-02-19T03:39:05.107Z,99274.84
2023-02-19T03:41:44.501Z,99276.75
2023-02-19T03:44:49.021Z,99278.75
2023-02-19T03:47:55.043Z,99283.66
2023-02-19T03:50:44.620Z,99292.88
2023-02-19T03:53:32.001Z,99296.50
2023-02-19T03:56:37.524Z,99299.72
2023-02-19T03:59:48.178Z,99302.59
2023-02-19T04:03:16.419Z,99301.16
2023-02-19T04:05:57.386Z,99300.13
2023-02-19T04:08:29.764Z,99301.00
2023-02-19T04:11:05.754Z,99306.81
2023-02-19T04:13:59.245Z,99310.88
2023-02-19T04:16:31.154Z,99315.69
2023-02-19T04:19:14.646Z,99319.81
2023-02-19T04:21:46.082Z,99316.19
2023-02-19T04:24:28.560Z,99320.50
2023-02-19T04:26:57.557Z,99324.22
2023-02-19T04:29:25.726Z,99317.19
2023-02-19T04:31:53.955Z,99323.38
2023-02-19T04:34:22.185Z,99316.44
2023-02-19T04:36:50.588Z,99325.06
2023-02-19T04:39:18.591Z,99329.69
2023-02-19T04:41:46.748Z,99338.75
2023-02-19T04:44:14.696Z,99340.59
2023-02-19T04:46:43.468Z,99329.94
2023-02-19T04:49:11.749Z,99333.94
2023-02-19T04:51:40.947Z,99348.81
2023-02-19T04:54:09.437Z,99354.63
2023-02-19T04:56:37.281Z,99355.16
2023-02-19T04:59:05.836Z,99357.69
2023-02-19T05:01:34.749Z,99358.19
2023-02-19T05:04:04.913Z,99371.38
2023-02-19T05:06:33.298Z,99369.47
2023-02-19T05:09:01.076Z,99369.53
2023-02-19T05:11:28.858Z,99354.63
2023-02-19T05:13:57.306Z,99353.88
2023-02-19T05:16:26.560Z,99355.66
2023-02-19T05:18:57.463Z,99363.16
2023-02-19T05:21:25.941Z,99361.31
2023-02-19T05:23:54.373Z,99370.00
2023-02-19T05:26:24.747Z,99367.41
2023-02-19T05:28:55.069Z,99366.38
2023-02-19T05:31:23.705Z,99362.94
2023-02-19T05:33:53.198Z,99358.53
2023-02-19T05:36:23.963Z,99354.13
2023-02-19T05:38:58.971Z,99357.00
2023-02-19T05:41:31.384Z,99359.81
2023-02-19T05:44:00.141Z,99368.91
2023-02-19T05:46:30.849Z,99368.41
2023-02-19T05:48:59.296Z,99375.50
2023-02-19T05:51:28.364Z,99371.22
2023-02-19T05:53:59.370Z,99370.34
2023-02-19T05:56:38.397Z,99373.84
2023-02-19T05:59:17.401Z,99371.53
2023-02-19T06:01:46.121Z,99376.78
2023-02-19T06:04:16.002Z,99382.41
2023-02-19T06:06:44.257Z,99384.28
2023-02-19T06:09:18.610Z,99389.13
2023-02-19T06:11:47.178Z,99396.28
2023-02-19T06:14:16.050Z,99400.75
2023-02-19T06:16:44.414Z,99407.50
2023-02-19T06:19:12.456Z,99419.72
2023-02-19T06:21:43.737Z,99414.22
2023-02-19T06:24:11.725Z,99418.22
2023-02-19T06:26:39.688Z,99430.25
2023-02-19T06:29:07.897Z,99438.34
2023-02-19T06:31:36.042Z,99433.38
2023-02-19T06:34:07.010Z,99448.78
2023-02-19T06:36:35.218Z,99452.41
2023-02-19T06:39:05.635Z,99459.16
2023-02-19T06:41:34.170Z,99454.69
2023-02-19T06:44:01.953Z,99447.91
2023-02-19T06:46:30.112Z,99454.81
2023-02-19T06:48:57.922Z,99453.13
2023-02-19T06:51:28.878Z,99452.16
2023-02-19T06:53:57.351Z,99453.34
2023-02-19T06:56:28.197Z,99459.53
2023-02-19T06:59:01.012Z,99454.81
2023-02-19T07:01:34.880Z,99468.03
2023-02-19T07:04:08.245Z,99461.34
2023-02-19T07:06:37.417Z,99480.72
2023-02-19T07:09:07.816Z,99480.84
2023-02-19T07:11:39.318Z,99482.75
2023-02-19T07:14:17.622Z,99490.03
2023-02-19T07:16:48.855Z,99481.94
2023-02-19T07:19:18.527Z,99467.66
2023-02-19T07:21:46.339Z,99484.09
2023-02-19T07:24:17.596Z,99481.69
2023-02-19T07:26:51.200Z,99505.25
2023-02-19T07:29:19.473Z,99506.22
2023-02-19T07:31:47.406Z,99502.09
2023-02-19T07:34:15.645Z,99511.47
2023-02-19T07:36:43.313Z,99506.13
2023-02-19T07:39:15.863Z,99504.06
2023-02-19T07:41:43.980Z,99493.16
2023-02-19T07:44:21.602Z,99498.63
2023-02-19T07:46:50.736Z,99508.41
2023-02-19T07:49:21.132Z,99504.19
2023-02-19T07:51:51.611Z,99504.41
2023-02-19T07:54:19.532Z,99501.59
2023-02-19T07:56:47.616Z,99495.50
2023-02-19T07:59:16.596Z,99494.56
2023-02-19T08:02:03.059Z,99502.94
2023-02-19T08:04:38.855Z,99501.31
2023-02-19T08:07:06.855Z,99503.53
2023-02-19T08:09:34.692Z,99512.84
2023-02-19T08:12:23.651Z,99506.31
2023-02-19T08:14:58.023Z,99493.72
2023-02-19T08:17:26.445Z,99504.34
2023-02-19T08:19:54.513Z,99506.78
2023-02-19T08:22:22.296Z,99508.50
2023-02-19T08:24:50.161Z,99525.47
2023-02-19T08:27:18.682Z,99528.72
2023-02-19T08:29:49.130Z,99552.31
2023-02-19T08:32:16.995Z,99553.34
2023-02-19T08:34:47.719Z,99555.09
2023-02-19T08:37:15.897Z,99565.44
2023-02-19T08:39:44.224Z,99576.25
2023-02-19T08:42:12.694Z,99565.72
2023-02-19T08:44:42.993Z,99566.78
2023-02-19T08:47:11.858Z,99567.31
2023-02-19T08:49:46.880Z,99567.44
2023-02-19T08:52:15.371Z,99571.47
2023-02-19T08:54:42.789Z,99570.84
2023-02-19T08:57:10.171Z,99576.78
2023-02-19T08:59:37.389Z,99578.13
2023-02-19T09:02:04.588Z,99586.28
2023-02-19T09:04:34.207Z,99573.44
2023-02-19T09:07:02.226Z,99581.09
2023-02-19T09:09:29.570Z,99592.66
2023-02-19T09:11:57.243Z,99594.81
2023-02-19T09:14:25.501Z,99597.75
2023-02-19T09:16:53.491Z,99614.53
2023-02-19T09:19:20.736Z,99605.97
2023-02-19T09:21:48.104Z,99609.97
2023-02-19T09:24:15.457Z,99615.53
2023-02-19T09:26:42.631Z,99618.81
2023-02-19T09:29:10.096Z,99612.41
2023-02-19T09:31:37.636Z,99616.97
2023-02-19T09:34:06.415Z,99614.31
2023-02-19T09:36:34.116Z,99626.03
2023-02-19T09:39:02.128Z,99613.53
2023-02-19T09:42:09.546Z,99623.63
2023-02-19T09:44:51.534Z,99615.72
2023-02-19T09:47:32.199Z,99614.16
2023-02-19T09:50:12.481Z,99616.81
2023-02-19T09:53:06.600Z,99624.06
2023-02-19T09:55:39.333Z,99630.09
2023-02-19T09:58:30.017Z,99638.81
2023-02-19T10:01:03.232Z,99631.25
2023-02-19T10:03:41.372Z,99633.22
2023-02-19T10:06:25.343Z,99626.38
2023-02-19T10:09:26.933Z,99620.47
2023-02-19T10:12:00.186Z,99620.69
2023-02-19T10:14:42.708Z,99617.38
2023-02-19T10:17:29.867Z,99623.19
2023-02-19T10:19:58.362Z,99627.13
2023-02-19T10:22:25.992Z,99617.38
2023-02-19T10:24:56.750Z,99629.22
2023-02-19T10:27:31.642Z,99629.22
2023-02-19T10:30:02.602Z,99627.81
2023-02-19T10:32:31.115Z,99633.41
2023-02-19T10:35:18.437Z,99639.81
2023-02-19T10:37:52.909Z,99643.09
2023-02-19T10:40:27.290Z,99638.34
2023-02-19T10:43:08.743Z,99648.59
2023-02-19T10:45:55.592Z,99652.13
2023-02-19T10:48:53.040Z,99649.44
2023-02-19T10:52:19.502Z,99662.72
2023-02-19T10:55:38.865Z,99667.19
2023-02-19T10:58:28.356Z,99664.34
2023-02-19T11:01:31.446Z,99665.66
2023-02-19T11:04:18.658Z,99661.91
2023-02-19T11:06:56.389Z,99666.28
2023-02-19T11:09:35.404Z,99665.13
2023-02-19T11:12:08.394Z,99658.09
2023-02-19T11:14:39.376Z,99641.78
2023-02-19T11:17:32.551Z,99641.53
2023-02-19T11:20:21.921Z,99640.19
2023-02-19T11:22:50.170Z,99650.56
2023-02-19T11:25:18.054Z,99650.88
2023-02-19T11:28:55.370Z,99650.13
2023-02-19T11:31:36.631Z,99648.25
2023-02-19T11:34:21.485Z,99651.59
2023-02-19T11:37:16.913Z,99665.91
2023-02-19T11:39:52.185Z,99655.56
2023-02-19T11:43:29.212Z,99649.31
2023-02-19T11:46:25.545Z,99648.22
2023-02-19T11:49:27.826Z,99652.31
2023-02-19T11:52:20.071Z,99648.22
2023-02-19T11:55:48.422Z,99667.47
2023-02-19T11:59:05.406Z,99668.53
2023-02-19T12:02:26.009Z,99671.47
2023-02-19T12:05:18.400Z,99671.78
2023-02-19T12:08:55.815Z,99670.34
2023-02-19T12:12:00.276Z,99676.34
2023-02-19T12:15:09.743Z,99686.19
2023-02-19T12:18:17.792Z,99686.28
2023-02-19T12:21:39.196Z,99669.81
2023-02-19T12:25:10.382Z,99668.66
2023-02-19T12:28:27.411Z,99665.47
2023-02-19T12:31:47.538Z,99657.28
2023-02-19T12:34:39.428Z,99659.44
2023-02-19T12:37:54.991Z,99643.19
2023-02-19T12:41:19.605Z,99656.91
2023-02-19T12:44:58.848Z,99667.47
2023-02-19T12:48:44.831Z,99680.09
2023-02-19T12:52:27.675Z,99675.25
2023-02-19T12:55:25.852Z,99669.59
2023-02-19T12:57:56.188Z,99654.16
2023-02-19T13:00:50.390Z,99664.56
2023-02-19T13:04:34.638Z,99667.81
2023-02-19T13:08:18.078Z,99653.91
2023-02-19T13:11:08.033Z,99644.41
2023-02-19T13:14:12.770Z,99649.47
2023-02-19T13:17:56.374Z,99664.06
2023-02-19T13:20:33.797Z,99657.69
2023-02-19T13:23:47.450Z,99646.81
2023-02-19T13:27:34.973Z,99651.06
2023-02-19T13:30:34.695Z,99651.59
2023-02-19T13:34:21.627Z,99667.97
2023-02-19T13:38:13.375Z,99667.81
2023-02-19T13:42:03.668Z,99667.25
2023-02-19T13:45:08.686Z,99647.38
2023-02-19T13:48:23.887Z,99662.28
2023-02-19T13:51:38.529Z,99651.91
2023-02-19T13:54:26.052Z,99649.28
2023-02-19T13:57:25.066Z,99651.84
2023-02-19T14:00:41.841Z,99634.19
2023-02-19T14:03:47.601Z,99644.47
2023-02-19T14:06:16.308Z,99642.56
2023-02-19T14:08:57.929Z,99642.41
2023-02-19T14:11:44.618Z,99645.44
2023-02-19T14:14:41.755Z,99644.13
2023-02-19T14:17:10.452Z,99656.34
2023-02-19T14:19:53.741Z,99641.53
2023-02-19T14:22:50.946Z,99647.94
2023-02-19T14:25:30.565Z,99652.59
2023-02-19T14:28:33.799Z,99640.00
2023-02-19T14:31:36.468Z,99648.81
2023-02-19T14:34:27.870Z,99648.50
2023-02-19T14:37:07.228Z,99657.53
2023-02-19T14:39:39.253Z,99662.97
2023-02-19T14:42:21.052Z,99655.28
2023-02-19T14:44:59.186Z,99659.22
2023-02-19T14:47:32.822Z,99658.59
2023-02-19T14:50:16.847Z,99663.44
2023-02-19T14:52:53.303Z,99668.16
2023-02-19T14:55:38.951Z,99685.50
2023-02-19T14:58:42.992Z,99687.25
2023-02-19T15:01:29.070Z,99686.00
2023-02-19T15:04:03.645Z,99677.69
2023-02-19T15:06:36.574Z,99674.47
2023-02-19T15:09:11.423Z,99688.69
2023-02-19T15:11:45.083Z,99688.88
2023-02-19T15:17:30.976Z,99707.44
2023-02-19T15:20:11.010Z,99713.78
2023-02-19T15:22:42.468Z,99713.94
2023-02-19T15:25:21.164Z,99714.56
2023-02-19T15:27:50.755Z,99714.47
2023-02-19T15:30:36.078Z,99727.75
2023-02-19T15:33:07.042Z,99726.50
2023-02-19T15:35:36.853Z,99728.84
2023-02-19T15:38:13.279Z,99723.75
2023-02-19T15:40:50.046Z,99727.50
2023-02-19T15:44:00.024Z,99739.03
2023-02-19T15:46:34.567Z,99723.78
2023-02-19T15:49:24.470Z,99733.84
2023-02-19T15:52:20.254Z,99729.78
2023-02-19T15:55:34.904Z,99723.25
2023-02-19T15:58:47.244Z,99717.31
2023-02-19T16:01:28.529Z,99713.22
2023-02-19T16:03:58.812Z,99721.41
2023-02-19T16:06:28.915Z,99730.72
2023-02-19T16:09:06.538Z,99728.44
2023-02-19T16:11:39.602Z,99717.19
2023-02-19T16:14:23.760Z,99730.44
2023-02-19T16:17:21.025Z,99729.72
2023-02-19T16:20:02.508Z,99736.88
2023-02-19T16:22:43.406Z,99727.00
2023-02-19T16:25:34.459Z,99735.19
2023-02-19T16:28:22.063Z,99751.69
2023-02-19T16:31:13.088Z,99754.47
2023-02-19T16:33:48.830Z,99753.94
2023-02-19T16:36:41.860Z,99747.22
2023-02-19T16:39:09.680Z,99749.41
2023-02-19T16:41:55.548Z,99740.97
2023-02-19T16:44:30.494Z,99748.56
2023-02-19T16:47:05.917Z,99742.63
2023-02-19T16:49:33.582Z,99740.91
2023-02-19T16:52:04.181Z,99740.44
2023-02-19T16:54:31.640Z,99744.16
2023-02-19T16:57:03.346Z,99731.66
2023-02-19T16:59:30.722Z,99738.34
2023-02-19T17:01:58.247Z,99745.84
2023-02-19T17:04:25.756Z,99747.69
2023-02-19T17:06:53.186Z,99754.97
2023-02-19T17:09:20.594Z,99762.00
2023-02-19T17:11:47.848Z,99762.59
2023-02-19T17:14:15.141Z,99758.47
2023-02-19T17:16:43.413Z,99756.53
2023-02-19T17:19:19.776Z,99755.84
2023-02-19T17:21:47.988Z,99760.34
2023-02-19T17:24:15.697Z,99762.72
2023-02-19T17:26:43.114Z,99774.84
2023-02-19T17:29:18.430Z,99781.88
2023-02-19T17:31:45.672Z,99781.06
2023-02-19T17:34:13.046Z,99785.06
2023-02-19T17:36:43.145Z,99797.44
2023-02-19T17:39:15.464Z,99811.84
2023-02-19T17:41:43.377Z,99812.72
2023-02-19T17:44:11.759Z,99810.38
2023-02-19T17:46:40.214Z,99816.47
2023-02-19T17:49:08.247Z,99821.47
2023-02-19T17:51:35.955Z,99825.81
2023-02-19T17:54:03.444Z,99825.94
2023-02-19T17:57:03.161Z,99828.38
2023-02-19T17:59:30.603Z,99832.75
2023-02-19T18:01:58.478Z,99831.63
2023-02-19T18:04:26.296Z,99838.53
2023-02-19T18:06:54.152Z,99838.31
2023-02-19T18:09:23.151Z,99845.81
2023-02-19T18:11:50.942Z,99857.22
2023-02-19T18:14:19.903Z,99871.03
2023-02-19T18:16:50.378Z,99867.41
2023-02-19T18:19:18.710Z,99875.69
2023-02-19T18:21:46.720Z,99875.28
2023-02-19T18:24:15.791Z,99881.75
2023-02-19T18:26:44.809Z,99879.03
2023-02-19T18:29:12.934Z,99877.00
2023-02-19T18:31:40.645Z,99878.44
2023-02-19T18:34:18.371Z,99886.94
2023-02-19T18:36:50.492Z,99876.66
2023-02-19T18:39:17.811Z,99886.81
2023-02-19T18:41:52.746Z,99886.31
2023-02-19T18:44:24.321Z,99886.81
2023-02-19T18:46:52.533Z,99886.97
2023-02-19T18:49:20.782Z,99886.88
2023-02-19T18:51:48.844Z,99893.72
2023-02-19T18:54:16.706Z,99887.53
2023-02-19T18:56:47.007Z,99888.47
2023-02-19T18:59:14.977Z,99891.31
2023-02-19T19:01:43.646Z,99881.38
2023-02-19T19:04:11.959Z,99886.78
2023-02-19T19:06:39.472Z,99890.19
2023-02-19T19:09:07.375Z,99887.53
2023-02-19T19:11:36.079Z,99897.22
2023-02-19T19:14:04.227Z,99898.03
2023-02-19T19:16:32.189Z,99901.56
2023-02-19T19:19:00.114Z,99903.31
2023-02-19T19:21:28.101Z,99913.53
2023-02-19T19:23:56.158Z,99920.75
2023-02-19T19:26:24.401Z,99927.19
2023-02-19T19:28:51.775Z,99930.81
2023-02-19T19:31:22.518Z,99927.81
2023-02-19T19:33:50.525Z,99916.50
2023-02-19T19:36:23.365Z,99925.59
2023-02-19T19:38:50.650Z,99930.94
2023-02-19T19:41:21.042Z,99932.91
2023-02-19T19:43:48.467Z,99927.06
2023-02-19T19:46:19.923Z,99922.31
2023-02-19T19:48:53.269Z,99937.72
2023-02-19T19:51:20.659Z,99941.59
2023-02-19T19:53:49.819Z,99942.09
2023-02-19T19:56:18.374Z,99943.31
2023-02-19T19:58:45.695Z,99941.28
2023-02-19T20:01:14.398Z,99941.41
2023-02-19T20:03:41.738Z,99936.38
2023-02-19T20:06:09.028Z,99937.03
2023-02-19T20:08:36.396Z,99939.66
2023-02-19T20:11:03.905Z,99939.16
2023-02-19T20:13:32.635Z,99946.31
2023-02-19T20:16:00.053Z,99950.19
2023-02-19T20:18:27.473Z,99928.75
2023-02-19T20:20:54.728Z,99937.06
2023-02-19T20:23:21.940Z,99927.34
2023-02-19T20:25:49.357Z,99922.63
2023-02-19T20:28:16.640Z,99927.72
2023-02-19T20:30:43.836Z,99919.66
2023-02-19T20:33:11.166Z,99925.84
2023-02-19T20:35:38.540Z,99944.66
2023-02-19T20:38:05.887Z,99928.75
2023-02-19T20:40:33.886Z,99945.84
2023-02-19T20:43:02.977Z,99956.88
2023-02-19T20:45:30.994Z,99952.63
2023-02-19T20:47:58.437Z,99945.72
2023-02-19T20:50:26.804Z,99943.34
2023-02-19T20:52:55.712Z,99946.13
2023-02-19T20:55:24.135Z,99943.28
2023-02-19T20:57:51.300Z,99941.19
2023-02-19T21:00:19.778Z,99938.44
2023-02-19T21:02:47.251Z,99945.44
2023-02-19T21:05:16.785Z,99939.88
2023-02-19T21:07:44.145Z,99933.41
2023-02-19T21:10:17.449Z,99943.97
2023-02-19T21:12:45.034Z,99949.94
2023-02-19T21:15:12.338Z,99947.84
2023-02-19T21:17:39.602Z,99947.47
2023-02-19T21:20:08.283Z,99944.91
2023-02-19T21:22:35.648Z,99955.13
2023-02-19T21:25:03.110Z,99951.34
2023-02-19T21:27:30.413Z,99948.56
2023-02-19T21:29:57.631Z,99939.03
2023-02-19T21:32:25.046Z,99942.38
2023-02-19T21:34:52.442Z,99945.38
2023-02-19T21:37:19.928Z,99946.22
2023-02-19T21:39:47.354Z,99947.94
2023-02-19T21:42:14.645Z,99948.78
2023-02-19T21:44:43.162Z,99950.09
2023-02-19T21:47:18.884Z,99940.84
2023-02-19T21:49:46.402Z,99932.34
2023-02-19T21:52:13.805Z,99937.41
2023-02-19T21:54:41.119Z,99928.81
2023-02-19T21:57:09.541Z,99930.09
2023-02-19T21:59:38.403Z,99928.91
2023-02-19T22:02:06.168Z,99923.63
2023-02-19T22:04:33.576Z,99923.41
2023-02-19T22:07:00.848Z,99920.06
2023-02-19T22:09:28.338Z,99929.53
2023-02-19T22:11:55.673Z,99932.00
2023-02-19T22:14:23.005Z,99931.53
2023-02-19T22:16:50.225Z,99936.78
2023-02-19T22:19:17.503Z,99932.00
2023-02-19T22:21:45.642Z,99935.78
2023-02-19T22:24:22.195Z,99938.78
2023-02-19T22:26:51.482Z,99945.94
2023-02-19T22:29:18.728Z,99947.16
2023-02-19T22:31:46.115Z,99948.66
2023-02-19T22:34:15.498Z,99955.34
2023-02-19T22:36:43.616Z,99952.56
2023-02-19T22:39:22.282Z,99952.88
2023-02-19T22:41:50.581Z,99960.53
2023-02-19T22:44:19.076Z,99948.41
2023-02-19T22:46:53.771Z,99948.91
2023-02-19T22:49:22.999Z,99952.16
2023-02-19T22:52:27.795Z,99959.00
2023-02-19T22:54:56.104Z,99955.44
2023-02-19T22:57:23.300Z,99956.44
2023-02-19T22:59:50.602Z,99962.47
2023-02-19T23:02:18.004Z,99963.22
2023-02-19T23:04:45.154Z,99956.16
2023-02-19T23:07:12.377Z,99959.84
2023-02-19T23:09:39.718Z,99972.06
2023-02-19T23:12:11.798Z,99972.97
2023-02-19T23:14:39.143Z,99977.56
2023-02-19T23:17:06.590Z,99981.81
2023-02-19T23:19:33.974Z,99980.91
2023-02-19T23:22:01.380Z,99977.63
2023-02-19T23:24:28.557Z,99981.34
2023-02-19T23:26:55.806Z,99978.56
2023-02-19T23:29:27.059Z,99972.81
2023-02-19T23:31:55.224Z,99980.09
2023-02-19T23:34:24.292Z,99971.00
2023-02-19T23:36:52.459Z,99976.72
2023-02-19T23:39:22.307Z,99977.56
2023-02-19T23:41:57.004Z,99982.28
2023-02-19T23:44:25.832Z,99979.53
2023-02-19T23:46:53.365Z,99982.88
2023-02-19T23:49:21.066Z,99976.13
2023-02-19T23:51:48.549Z,99974.53
2023-02-19T23:54:16.221Z,99981.97
2023-02-19T23:56:43.799Z,99973.97
2023-02-19T23:59:11.267Z,99978.28
